Salt Lake City, Utah
Traffic Map
Current Weather Conditions
Salt Lake City, Utah
Broken Clouds
Broken Clouds
56°
Feels Like: 56°
Wind Chill: 56° Ceiling: 7500
Heat Index: 56° Visibility: 10mi
Dew Point: 39° Wind: 9mph
Humidity: 53% Direction: 310° (NW)
Pressure: 30.07in Gusts: 0mph
Raw Report DataKSLC 010454Z 31008KT 10SM BKN075 13/04 A3007 RMK AO2 SLP157 T01330039
Traffic Incident Summary
Active as of:
Severity:
Category:
InformationThere was an issue retrieving the traffic information for this location. Please try a different location or try again shortly.
Advertisements
Track Severe Weather on mobile